sensor_id;sensor_type;location;lat;lon;timestamp;temperature;humidity
39325;DHT22;25037;49.488;9.900;2024-01-25T00:01:52;10.60;62.00
39325;DHT22;25037;49.488;9.900;2024-01-25T00:04:19;10.60;62.00
39325;DHT22;25037;49.488;9.900;2024-01-25T00:06:46;10.60;62.00
39325;DHT22;25037;49.488;9.900;2024-01-25T00:09:13;10.60;62.00
39325;DHT22;25037;49.488;9.900;2024-01-25T00:11:40;10.60;62.00
39325;DHT22;25037;49.488;9.900;2024-01-25T00:14:09;10.50;62.00
39325;DHT22;25037;49.488;9.900;2024-01-25T00:16:41;10.50;62.00
39325;DHT22;25037;49.488;9.900;2024-01-25T00:19:08;10.50;62.20
39325;DHT22;25037;49.488;9.900;2024-01-25T00:21:41;10.50;62.30
39325;DHT22;25037;49.488;9.900;2024-01-25T00:24:12;10.50;62.30
39325;DHT22;25037;49.488;9.900;2024-01-25T00:26:39;10.60;62.10
39325;DHT22;25037;49.488;9.900;2024-01-25T00:29:06;10.60;62.10
39325;DHT22;25037;49.488;9.900;2024-01-25T00:31:33;10.60;62.00
39325;DHT22;25037;49.488;9.900;2024-01-25T00:34:00;10.60;62.00
39325;DHT22;25037;49.488;9.900;2024-01-25T00:36:28;10.50;62.00
39325;DHT22;25037;49.488;9.900;2024-01-25T00:38:55;10.50;62.10
39325;DHT22;25037;49.488;9.900;2024-01-25T00:41:23;10.40;62.20
39325;DHT22;25037;49.488;9.900;2024-01-25T00:43:50;10.40;62.20
39325;DHT22;25037;49.488;9.900;2024-01-25T00:46:18;10.40;62.30
39325;DHT22;25037;49.488;9.900;2024-01-25T00:48:45;10.40;62.30
39325;DHT22;25037;49.488;9.900;2024-01-25T00:51:22;10.50;62.40
39325;DHT22;25037;49.488;9.900;2024-01-25T00:53:50;10.50;62.40
39325;DHT22;25037;49.488;9.900;2024-01-25T00:56:17;10.50;62.30
39325;DHT22;25037;49.488;9.900;2024-01-25T00:58:44;10.40;62.30
39325;DHT22;25037;49.488;9.900;2024-01-25T01:01:11;10.50;62.30
39325;DHT22;25037;49.488;9.900;2024-01-25T01:03:38;10.40;62.40
39325;DHT22;25037;49.488;9.900;2024-01-25T01:06:06;10.40;62.40
39325;DHT22;25037;49.488;9.900;2024-01-25T01:08:33;10.40;62.40
39325;DHT22;25037;49.488;9.900;2024-01-25T01:11:00;10.40;62.30
39325;DHT22;25037;49.488;9.900;2024-01-25T01:13:27;10.40;62.40
39325;DHT22;25037;49.488;9.900;2024-01-25T01:15:54;10.30;62.40
39325;DHT22;25037;49.488;9.900;2024-01-25T01:18:21;10.40;62.50
39325;DHT22;25037;49.488;9.900;2024-01-25T01:20:48;10.40;62.50
39325;DHT22;25037;49.488;9.900;2024-01-25T01:23:15;10.40;62.50
39325;DHT22;25037;49.488;9.900;2024-01-25T01:25:42;10.40;62.50
39325;DHT22;25037;49.488;9.900;2024-01-25T01:28:09;10.40;62.50
39325;DHT22;25037;49.488;9.900;2024-01-25T01:30:36;10.50;62.60
39325;DHT22;25037;49.488;9.900;2024-01-25T01:33:03;10.50;62.50
39325;DHT22;25037;49.488;9.900;2024-01-25T01:35:30;10.50;62.50
39325;DHT22;25037;49.488;9.900;2024-01-25T01:37:57;10.50;62.50
39325;DHT22;25037;49.488;9.900;2024-01-25T01:40:24;10.50;62.50
39325;DHT22;25037;49.488;9.900;2024-01-25T01:42:51;10.50;62.50
39325;DHT22;25037;49.488;9.900;2024-01-25T01:45:18;10.50;62.50
39325;DHT22;25037;49.488;9.900;2024-01-25T01:47:45;10.50;62.60
39325;DHT22;25037;49.488;9.900;2024-01-25T01:50:12;10.50;62.70
39325;DHT22;25037;49.488;9.900;2024-01-25T01:52:40;10.50;62.70
39325;DHT22;25037;49.488;9.900;2024-01-25T01:55:08;10.50;62.80
39325;DHT22;25037;49.488;9.900;2024-01-25T01:57:36;10.50;62.80
39325;DHT22;25037;49.488;9.900;2024-01-25T02:00:07;10.50;62.80
39325;DHT22;25037;49.488;9.900;2024-01-25T02:02:35;10.60;62.80
39325;DHT22;25037;49.488;9.900;2024-01-25T02:05:02;10.60;62.80
39325;DHT22;25037;49.488;9.900;2024-01-25T02:07:30;10.70;62.80
39325;DHT22;25037;49.488;9.900;2024-01-25T02:09:57;10.70;62.70
39325;DHT22;25037;49.488;9.900;2024-01-25T02:12:24;10.70;62.60
39325;DHT22;25037;49.488;9.900;2024-01-25T02:14:51;10.80;62.50
39325;DHT22;25037;49.488;9.900;2024-01-25T02:17:18;10.80;62.50
39325;DHT22;25037;49.488;9.900;2024-01-25T02:19:45;10.80;62.40
39325;DHT22;25037;49.488;9.900;2024-01-25T02:22:14;10.80;62.40
39325;DHT22;25037;49.488;9.900;2024-01-25T02:24:41;10.80;62.30
39325;DHT22;25037;49.488;9.900;2024-01-25T02:27:09;10.80;62.30
39325;DHT22;25037;49.488;9.900;2024-01-25T02:29:36;10.80;62.20
39325;DHT22;25037;49.488;9.900;2024-01-25T02:32:03;10.80;62.10
39325;DHT22;25037;49.488;9.900;2024-01-25T02:34:30;10.80;62.10
39325;DHT22;25037;49.488;9.900;2024-01-25T02:36:57;10.80;62.20
39325;DHT22;25037;49.488;9.900;2024-01-25T02:39:24;10.70;62.20
39325;DHT22;25037;49.488;9.900;2024-01-25T02:41:51;10.80;62.20
39325;DHT22;25037;49.488;9.900;2024-01-25T02:44:18;10.80;62.20
39325;DHT22;25037;49.488;9.900;2024-01-25T02:46:45;10.80;62.20
39325;DHT22;25037;49.488;9.900;2024-01-25T02:49:13;10.80;62.10
39325;DHT22;25037;49.488;9.900;2024-01-25T02:51:40;10.80;62.10
39325;DHT22;25037;49.488;9.900;2024-01-25T02:54:07;10.80;62.20
39325;DHT22;25037;49.488;9.900;2024-01-25T02:56:34;10.80;62.20
39325;DHT22;25037;49.488;9.900;2024-01-25T02:59:02;10.80;62.20
39325;DHT22;25037;49.488;9.900;2024-01-25T03:01:40;10.80;62.20
39325;DHT22;25037;49.488;9.900;2024-01-25T03:04:08;10.80;62.30
39325;DHT22;25037;49.488;9.900;2024-01-25T03:06:35;10.80;62.30
39325;DHT22;25037;49.488;9.900;2024-01-25T03:09:02;10.80;62.30
39325;DHT22;25037;49.488;9.900;2024-01-25T03:11:31;10.80;62.30
39325;DHT22;25037;49.488;9.900;2024-01-25T03:13:58;10.80;62.30
39325;DHT22;25037;49.488;9.900;2024-01-25T03:16:25;10.80;62.20
39325;DHT22;25037;49.488;9.900;2024-01-25T03:18:52;10.70;62.30
39325;DHT22;25037;49.488;9.900;2024-01-25T03:21:19;10.70;62.30
39325;DHT22;25037;49.488;9.900;2024-01-25T03:23:46;10.60;62.30
39325;DHT22;25037;49.488;9.900;2024-01-25T03:26:13;10.50;62.40
39325;DHT22;25037;49.488;9.900;2024-01-25T03:28:40;10.40;62.50
39325;DHT22;25037;49.488;9.900;2024-01-25T03:31:07;10.30;62.60
39325;DHT22;25037;49.488;9.900;2024-01-25T03:33:34;10.30;62.60
39325;DHT22;25037;49.488;9.900;2024-01-25T03:36:05;10.20;62.80
39325;DHT22;25037;49.488;9.900;2024-01-25T03:38:32;10.10;62.90
39325;DHT22;25037;49.488;9.900;2024-01-25T03:40:59;10.10;63.00
39325;DHT22;25037;49.488;9.900;2024-01-25T03:43:26;10.20;63.10
39325;DHT22;25037;49.488;9.900;2024-01-25T03:46:04;10.20;63.00
39325;DHT22;25037;49.488;9.900;2024-01-25T03:48:31;10.20;63.00
39325;DHT22;25037;49.488;9.900;2024-01-25T03:50:59;10.20;63.00
39325;DHT22;25037;49.488;9.900;2024-01-25T03:53:25;10.20;63.00
39325;DHT22;25037;49.488;9.900;2024-01-25T03:55:52;10.20;62.90
39325;DHT22;25037;49.488;9.900;2024-01-25T03:58:20;10.30;62.90
39325;DHT22;25037;49.488;9.900;2024-01-25T04:00:47;10.30;62.90
39325;DHT22;25037;49.488;9.900;2024-01-25T04:03:14;10.30;62.80
39325;DHT22;25037;49.488;9.900;2024-01-25T04:05:41;10.30;62.80
39325;DHT22;25037;49.488;9.900;2024-01-25T04:08:08;10.30;62.80
39325;DHT22;25037;49.488;9.900;2024-01-25T04:10:35;10.30;62.80
39325;DHT22;25037;49.488;9.900;2024-01-25T04:13:02;10.30;62.80
39325;DHT22;25037;49.488;9.900;2024-01-25T04:15:31;10.30;62.80
39325;DHT22;25037;49.488;9.900;2024-01-25T04:17:58;10.20;62.80
39325;DHT22;25037;49.488;9.900;2024-01-25T04:20:25;10.20;62.90
39325;DHT22;25037;49.488;9.900;2024-01-25T04:22:52;10.20;63.00
39325;DHT22;25037;49.488;9.900;2024-01-25T04:25:19;10.10;63.10
39325;DHT22;25037;49.488;9.900;2024-01-25T04:27:47;10.20;63.20
39325;DHT22;25037;49.488;9.900;2024-01-25T04:30:14;10.10;63.20
39325;DHT22;25037;49.488;9.900;2024-01-25T04:32:40;10.20;63.20
39325;DHT22;25037;49.488;9.900;2024-01-25T04:35:08;10.20;63.10
39325;DHT22;25037;49.488;9.900;2024-01-25T04:37:36;10.20;63.10
39325;DHT22;25037;49.488;9.900;2024-01-25T04:40:04;10.20;63.20
39325;DHT22;25037;49.488;9.900;2024-01-25T04:42:32;10.10;63.20
39325;DHT22;25037;49.488;9.900;2024-01-25T04:45:01;10.10;63.20
39325;DHT22;25037;49.488;9.900;2024-01-25T04:47:29;10.10;63.30
39325;DHT22;25037;49.488;9.900;2024-01-25T04:49:56;10.10;63.30
39325;DHT22;25037;49.488;9.900;2024-01-25T04:52:23;10.10;63.40
39325;DHT22;25037;49.488;9.900;2024-01-25T04:54:50;10.10;63.50
39325;DHT22;25037;49.488;9.900;2024-01-25T04:57:16;10.20;63.50
39325;DHT22;25037;49.488;9.900;2024-01-25T04:59:43;10.10;63.40
39325;DHT22;25037;49.488;9.900;2024-01-25T05:02:10;10.20;63.40
39325;DHT22;25037;49.488;9.900;2024-01-25T05:04:37;10.20;63.30
39325;DHT22;25037;49.488;9.900;2024-01-25T05:07:04;10.20;63.20
39325;DHT22;25037;49.488;9.900;2024-01-25T05:09:31;10.20;63.20
39325;DHT22;25037;49.488;9.900;2024-01-25T05:11:59;10.10;63.30
39325;DHT22;25037;49.488;9.900;2024-01-25T05:14:28;10.10;63.40
39325;DHT22;25037;49.488;9.900;2024-01-25T05:16:55;10.00;63.40
39325;DHT22;25037;49.488;9.900;2024-01-25T05:19:22;10.00;63.50
39325;DHT22;25037;49.488;9.900;2024-01-25T05:21:49;9.90;63.50
39325;DHT22;25037;49.488;9.900;2024-01-25T05:24:16;9.80;63.60
39325;DHT22;25037;49.488;9.900;2024-01-25T05:26:43;9.80;63.70
39325;DHT22;25037;49.488;9.900;2024-01-25T05:29:10;9.70;63.70
39325;DHT22;25037;49.488;9.900;2024-01-25T05:31:37;9.70;63.80
39325;DHT22;25037;49.488;9.900;2024-01-25T05:34:04;9.60;63.80
39325;DHT22;25037;49.488;9.900;2024-01-25T05:36:31;9.60;63.80
39325;DHT22;25037;49.488;9.900;2024-01-25T05:38:58;9.50;63.80
39325;DHT22;25037;49.488;9.900;2024-01-25T05:41:25;9.50;63.90
39325;DHT22;25037;49.488;9.900;2024-01-25T05:43:51;9.50;64.00
39325;DHT22;25037;49.488;9.900;2024-01-25T05:46:18;9.40;64.00
39325;DHT22;25037;49.488;9.900;2024-01-25T05:48:45;9.40;64.00
39325;DHT22;25037;49.488;9.900;2024-01-25T05:51:12;9.30;63.90
39325;DHT22;25037;49.488;9.900;2024-01-25T05:53:40;9.30;64.00
39325;DHT22;25037;49.488;9.900;2024-01-25T05:56:07;9.20;64.00
39325;DHT22;25037;49.488;9.900;2024-01-25T05:58:34;9.20;64.10
39325;DHT22;25037;49.488;9.900;2024-01-25T06:01:01;9.10;64.10
39325;DHT22;25037;49.488;9.900;2024-01-25T06:03:29;9.10;64.20
39325;DHT22;25037;49.488;9.900;2024-01-25T06:05:56;9.00;64.20
39325;DHT22;25037;49.488;9.900;2024-01-25T06:08:23;8.90;64.40
39325;DHT22;25037;49.488;9.900;2024-01-25T06:10:51;8.90;64.40
39325;DHT22;25037;49.488;9.900;2024-01-25T06:13:18;8.80;64.40
39325;DHT22;25037;49.488;9.900;2024-01-25T06:15:45;8.70;64.50
39325;DHT22;25037;49.488;9.900;2024-01-25T06:18:12;8.60;64.50
39325;DHT22;25037;49.488;9.900;2024-01-25T06:20:38;8.60;64.50
39325;DHT22;25037;49.488;9.900;2024-01-25T06:23:05;8.50;64.70
39325;DHT22;25037;49.488;9.900;2024-01-25T06:25:32;8.50;64.80
39325;DHT22;25037;49.488;9.900;2024-01-25T06:28:01;8.40;64.90
39325;DHT22;25037;49.488;9.900;2024-01-25T06:30:28;8.40;65.00
39325;DHT22;25037;49.488;9.900;2024-01-25T06:32:55;8.30;65.00
39325;DHT22;25037;49.488;9.900;2024-01-25T06:35:23;8.30;65.10
39325;DHT22;25037;49.488;9.900;2024-01-25T06:37:50;8.20;65.10
39325;DHT22;25037;49.488;9.900;2024-01-25T06:40:17;8.10;65.20
39325;DHT22;25037;49.488;9.900;2024-01-25T06:42:44;8.10;65.30
39325;DHT22;25037;49.488;9.900;2024-01-25T06:45:12;7.90;65.40
39325;DHT22;25037;49.488;9.900;2024-01-25T06:47:38;7.90;65.50
39325;DHT22;25037;49.488;9.900;2024-01-25T06:50:06;7.80;65.70
39325;DHT22;25037;49.488;9.900;2024-01-25T06:52:33;7.80;65.80
39325;DHT22;25037;49.488;9.900;2024-01-25T06:55:01;7.70;66.00
39325;DHT22;25037;49.488;9.900;2024-01-25T06:57:28;7.70;66.20
39325;DHT22;25037;49.488;9.900;2024-01-25T06:59:55;7.70;66.40
39325;DHT22;25037;49.488;9.900;2024-01-25T07:02:22;7.70;66.40
39325;DHT22;25037;49.488;9.900;2024-01-25T07:04:50;7.80;66.40
39325;DHT22;25037;49.488;9.900;2024-01-25T07:07:20;7.80;66.40
39325;DHT22;25037;49.488;9.900;2024-01-25T07:09:47;7.80;66.20
39325;DHT22;25037;49.488;9.900;2024-01-25T07:12:14;7.80;66.20
39325;DHT22;25037;49.488;9.900;2024-01-25T07:14:41;7.80;66.30
39325;DHT22;25037;49.488;9.900;2024-01-25T07:17:08;7.80;66.50
39325;DHT22;25037;49.488;9.900;2024-01-25T07:19:35;7.80;66.60
39325;DHT22;25037;49.488;9.900;2024-01-25T07:22:02;7.80;66.70
39325;DHT22;25037;49.488;9.900;2024-01-25T07:24:29;7.80;66.70
39325;DHT22;25037;49.488;9.900;2024-01-25T07:26:56;7.80;66.80
39325;DHT22;25037;49.488;9.900;2024-01-25T07:29:23;7.90;66.80
39325;DHT22;25037;49.488;9.900;2024-01-25T07:31:49;7.90;66.80
39325;DHT22;25037;49.488;9.900;2024-01-25T07:34:17;8.00;66.80
39325;DHT22;25037;49.488;9.900;2024-01-25T07:36:44;8.00;66.90
39325;DHT22;25037;49.488;9.900;2024-01-25T07:39:11;8.00;66.90
39325;DHT22;25037;49.488;9.900;2024-01-25T07:41:38;8.10;66.80
39325;DHT22;25037;49.488;9.900;2024-01-25T07:44:05;8.20;66.80
39325;DHT22;25037;49.488;9.900;2024-01-25T07:46:32;8.20;66.80
39325;DHT22;25037;49.488;9.900;2024-01-25T07:49:00;8.30;66.80
39325;DHT22;25037;49.488;9.900;2024-01-25T07:51:27;8.30;66.70
39325;DHT22;25037;49.488;9.900;2024-01-25T07:53:55;8.40;66.70
39325;DHT22;25037;49.488;9.900;2024-01-25T07:56:22;8.40;66.70
39325;DHT22;25037;49.488;9.900;2024-01-25T07:58:49;8.40;66.70
39325;DHT22;25037;49.488;9.900;2024-01-25T08:01:18;8.50;66.60
39325;DHT22;25037;49.488;9.900;2024-01-25T08:03:48;8.50;66.50
39325;DHT22;25037;49.488;9.900;2024-01-25T08:06:15;8.60;66.40
39325;DHT22;25037;49.488;9.900;2024-01-25T08:08:42;8.70;66.40
39325;DHT22;25037;49.488;9.900;2024-01-25T08:11:10;8.80;66.40
39325;DHT22;25037;49.488;9.900;2024-01-25T08:13:37;9.00;66.40
39325;DHT22;25037;49.488;9.900;2024-01-25T08:16:04;9.10;66.20
39325;DHT22;25037;49.488;9.900;2024-01-25T08:18:31;9.20;66.10
39325;DHT22;25037;49.488;9.900;2024-01-25T08:20:58;9.30;66.00
39325;DHT22;25037;49.488;9.900;2024-01-25T08:23:25;9.40;65.90
39325;DHT22;25037;49.488;9.900;2024-01-25T08:25:52;9.40;66.10
39325;DHT22;25037;49.488;9.900;2024-01-25T08:28:19;9.50;66.10
39325;DHT22;25037;49.488;9.900;2024-01-25T08:30:47;9.70;65.80
39325;DHT22;25037;49.488;9.900;2024-01-25T08:33:14;9.80;65.60
39325;DHT22;25037;49.488;9.900;2024-01-25T08:35:41;9.90;65.50
39325;DHT22;25037;49.488;9.900;2024-01-25T08:38:09;10.00;65.40
39325;DHT22;25037;49.488;9.900;2024-01-25T08:40:36;10.10;65.30
39325;DHT22;25037;49.488;9.900;2024-01-25T08:43:03;10.20;65.20
39325;DHT22;25037;49.488;9.900;2024-01-25T08:45:31;10.40;65.10
39325;DHT22;25037;49.488;9.900;2024-01-25T08:47:59;10.50;65.00
39325;DHT22;25037;49.488;9.900;2024-01-25T08:50:27;10.60;64.80
39325;DHT22;25037;49.488;9.900;2024-01-25T08:52:54;10.70;64.70
39325;DHT22;25037;49.488;9.900;2024-01-25T08:55:21;10.80;64.50
39325;DHT22;25037;49.488;9.900;2024-01-25T08:57:51;10.90;64.40
39325;DHT22;25037;49.488;9.900;2024-01-25T09:00:18;11.10;64.20
39325;DHT22;25037;49.488;9.900;2024-01-25T09:02:45;11.20;64.10
39325;DHT22;25037;49.488;9.900;2024-01-25T09:05:12;11.30;64.00
39325;DHT22;25037;49.488;9.900;2024-01-25T09:07:39;11.40;63.90
39325;DHT22;25037;49.488;9.900;2024-01-25T09:10:07;11.60;63.80
39325;DHT22;25037;49.488;9.900;2024-01-25T09:12:35;11.70;63.60
39325;DHT22;25037;49.488;9.900;2024-01-25T09:15:03;11.80;63.50
39325;DHT22;25037;49.488;9.900;2024-01-25T09:17:36;11.90;63.30
39325;DHT22;25037;49.488;9.900;2024-01-25T09:20:07;11.90;63.10
39325;DHT22;25037;49.488;9.900;2024-01-25T09:22:37;12.10;63.00
39325;DHT22;25037;49.488;9.900;2024-01-25T09:25:04;12.10;62.90
39325;DHT22;25037;49.488;9.900;2024-01-25T09:27:35;12.20;62.80
39325;DHT22;25037;49.488;9.900;2024-01-25T09:30:05;12.20;62.70
39325;DHT22;25037;49.488;9.900;2024-01-25T09:32:32;12.20;62.60
39325;DHT22;25037;49.488;9.900;2024-01-25T09:35:01;12.20;62.60
39325;DHT22;25037;49.488;9.900;2024-01-25T09:37:28;12.30;62.50
39325;DHT22;25037;49.488;9.900;2024-01-25T09:39:59;12.40;62.50
39325;DHT22;25037;49.488;9.900;2024-01-25T09:42:29;12.40;62.40
39325;DHT22;25037;49.488;9.900;2024-01-25T09:44:57;12.40;62.30
39325;DHT22;25037;49.488;9.900;2024-01-25T09:47:24;12.50;62.30
39325;DHT22;25037;49.488;9.900;2024-01-25T09:49:51;12.50;62.20
39325;DHT22;25037;49.488;9.900;2024-01-25T09:52:25;12.50;62.30
39325;DHT22;25037;49.488;9.900;2024-01-25T09:54:53;12.60;62.00
39325;DHT22;25037;49.488;9.900;2024-01-25T09:57:24;12.60;61.90
39325;DHT22;25037;49.488;9.900;2024-01-25T10:03:33;12.70;61.50
39325;DHT22;25037;49.488;9.900;2024-01-25T10:06:02;12.70;61.60
39325;DHT22;25037;49.488;9.900;2024-01-25T10:08:32;12.80;61.60
39325;DHT22;25037;49.488;9.900;2024-01-25T10:10:59;13.00;61.60
39325;DHT22;25037;49.488;9.900;2024-01-25T10:13:35;13.10;61.30
39325;DHT22;25037;49.488;9.900;2024-01-25T10:16:16;13.20;61.00
39325;DHT22;25037;49.488;9.900;2024-01-25T10:18:46;13.30;60.80
39325;DHT22;25037;49.488;9.900;2024-01-25T10:21:15;13.40;60.60
39325;DHT22;25037;49.488;9.900;2024-01-25T10:23:44;13.50;60.40
39325;DHT22;25037;49.488;9.900;2024-01-25T10:26:16;13.60;60.20
39325;DHT22;25037;49.488;9.900;2024-01-25T10:28:51;13.70;60.30
39325;DHT22;25037;49.488;9.900;2024-01-25T10:31:25;13.70;59.40
39325;DHT22;25037;49.488;9.900;2024-01-25T10:33:56;13.70;59.30
39325;DHT22;25037;49.488;9.900;2024-01-25T10:36:24;13.70;58.90
39325;DHT22;25037;49.488;9.900;2024-01-25T10:39:23;13.70;58.90
39325;DHT22;25037;49.488;9.900;2024-01-25T10:41:51;13.80;58.80
39325;DHT22;25037;49.488;9.900;2024-01-25T10:44:19;13.80;58.60
39325;DHT22;25037;49.488;9.900;2024-01-25T10:46:50;13.80;58.50
39325;DHT22;25037;49.488;9.900;2024-01-25T10:49:18;13.90;58.40
39325;DHT22;25037;49.488;9.900;2024-01-25T10:51:49;13.90;58.20
39325;DHT22;25037;49.488;9.900;2024-01-25T10:54:31;13.90;58.00
39325;DHT22;25037;49.488;9.900;2024-01-25T10:57:08;14.00;57.70
39325;DHT22;25037;49.488;9.900;2024-01-25T10:59:39;13.90;56.70
39325;DHT22;25037;49.488;9.900;2024-01-25T11:02:07;14.00;57.30
39325;DHT22;25037;49.488;9.900;2024-01-25T11:04:36;14.00;57.40
39325;DHT22;25037;49.488;9.900;2024-01-25T11:07:07;14.20;57.10
39325;DHT22;25037;49.488;9.900;2024-01-25T11:09:44;14.40;56.60
39325;DHT22;25037;49.488;9.900;2024-01-25T11:12:13;14.50;56.40
39325;DHT22;25037;49.488;9.900;2024-01-25T11:14:40;14.60;56.10
39325;DHT22;25037;49.488;9.900;2024-01-25T11:17:22;14.70;56.00
39325;DHT22;25037;49.488;9.900;2024-01-25T11:19:50;14.80;55.30
39325;DHT22;25037;49.488;9.900;2024-01-25T11:22:19;14.80;55.60
39325;DHT22;25037;49.488;9.900;2024-01-25T11:24:46;14.80;55.20
39325;DHT22;25037;49.488;9.900;2024-01-25T11:27:16;14.90;55.10
39325;DHT22;25037;49.488;9.900;2024-01-25T11:29:43;14.90;55.00
39325;DHT22;25037;49.488;9.900;2024-01-25T11:32:11;14.90;54.90
39325;DHT22;25037;49.488;9.900;2024-01-25T11:34:38;14.90;54.80
39325;DHT22;25037;49.488;9.900;2024-01-25T11:37:06;14.90;54.70
39325;DHT22;25037;49.488;9.900;2024-01-25T11:39:36;14.90;54.30
39325;DHT22;25037;49.488;9.900;2024-01-25T11:42:07;14.90;54.20
39325;DHT22;25037;49.488;9.900;2024-01-25T11:44:37;14.80;54.40
39325;DHT22;25037;49.488;9.900;2024-01-25T11:47:05;14.90;54.30
39325;DHT22;25037;49.488;9.900;2024-01-25T11:49:35;14.80;53.90
39325;DHT22;25037;49.488;9.900;2024-01-25T11:52:03;14.80;53.90
39325;DHT22;25037;49.488;9.900;2024-01-25T11:54:31;14.80;53.60
39325;DHT22;25037;49.488;9.900;2024-01-25T11:56:59;14.80;53.60
39325;DHT22;25037;49.488;9.900;2024-01-25T11:59:28;14.80;53.60
39325;DHT22;25037;49.488;9.900;2024-01-25T12:02:00;14.80;53.50
39325;DHT22;25037;49.488;9.900;2024-01-25T12:04:55;14.90;53.30
39325;DHT22;25037;49.488;9.900;2024-01-25T12:07:35;14.90;52.90
39325;DHT22;25037;49.488;9.900;2024-01-25T12:13:49;14.90;52.60
39325;DHT22;25037;49.488;9.900;2024-01-25T12:16:46;14.80;52.80
39325;DHT22;25037;49.488;9.900;2024-01-25T12:19:34;14.90;52.60
39325;DHT22;25037;49.488;9.900;2024-01-25T12:25:22;14.90;51.80
39325;DHT22;25037;49.488;9.900;2024-01-25T12:28:06;14.80;51.60
39325;DHT22;25037;49.488;9.900;2024-01-25T12:30:38;14.70;51.50
39325;DHT22;25037;49.488;9.900;2024-01-25T12:33:10;14.60;51.50
39325;DHT22;25037;49.488;9.900;2024-01-25T12:40:18;14.40;51.20
39325;DHT22;25037;49.488;9.900;2024-01-25T12:43:19;14.30;51.70
39325;DHT22;25037;49.488;9.900;2024-01-25T12:45:48;14.30;51.90
39325;DHT22;25037;49.488;9.900;2024-01-25T12:48:18;14.20;51.70
39325;DHT22;25037;49.488;9.900;2024-01-25T12:50:55;14.20;51.80
39325;DHT22;25037;49.488;9.900;2024-01-25T12:53:24;14.20;51.80
39325;DHT22;25037;49.488;9.900;2024-01-25T12:55:51;14.20;51.90
39325;DHT22;25037;49.488;9.900;2024-01-25T12:58:19;14.20;52.00
39325;DHT22;25037;49.488;9.900;2024-01-25T13:00:46;14.20;51.80
39325;DHT22;25037;49.488;9.900;2024-01-25T13:03:16;14.20;51.90
39325;DHT22;25037;49.488;9.900;2024-01-25T13:05:44;14.20;52.00
39325;DHT22;25037;49.488;9.900;2024-01-25T13:08:11;14.20;51.80
39325;DHT22;25037;49.488;9.900;2024-01-25T13:10:38;14.20;51.80
39325;DHT22;25037;49.488;9.900;2024-01-25T13:13:05;14.20;51.80
39325;DHT22;25037;49.488;9.900;2024-01-25T13:15:32;14.20;52.00
39325;DHT22;25037;49.488;9.900;2024-01-25T13:17:59;14.20;52.10
39325;DHT22;25037;49.488;9.900;2024-01-25T13:20:28;14.20;52.10
39325;DHT22;25037;49.488;9.900;2024-01-25T13:22:55;14.20;52.10
39325;DHT22;25037;49.488;9.900;2024-01-25T13:25:22;14.20;52.00
39325;DHT22;25037;49.488;9.900;2024-01-25T13:27:49;14.20;52.00
39325;DHT22;25037;49.488;9.900;2024-01-25T13:30:16;14.20;51.90
39325;DHT22;25037;49.488;9.900;2024-01-25T13:32:43;14.20;52.00
39325;DHT22;25037;49.488;9.900;2024-01-25T13:35:10;14.10;52.00
39325;DHT22;25037;49.488;9.900;2024-01-25T13:37:37;14.10;52.10
39325;DHT22;25037;49.488;9.900;2024-01-25T13:40:05;14.10;52.20
39325;DHT22;25037;49.488;9.900;2024-01-25T13:42:32;14.10;52.20
39325;DHT22;25037;49.488;9.900;2024-01-25T13:44:59;14.10;52.20
39325;DHT22;25037;49.488;9.900;2024-01-25T13:47:26;14.00;52.20
39325;DHT22;25037;49.488;9.900;2024-01-25T13:49:53;14.00;52.50
39325;DHT22;25037;49.488;9.900;2024-01-25T13:52:20;13.90;52.50
39325;DHT22;25037;49.488;9.900;2024-01-25T13:54:47;13.80;52.70
39325;DHT22;25037;49.488;9.900;2024-01-25T13:57:17;13.80;52.70
39325;DHT22;25037;49.488;9.900;2024-01-25T13:59:47;13.90;52.70
39325;DHT22;25037;49.488;9.900;2024-01-25T14:02:14;13.80;52.90
39325;DHT22;25037;49.488;9.900;2024-01-25T14:04:41;13.80;53.00
39325;DHT22;25037;49.488;9.900;2024-01-25T14:07:08;13.80;53.00
39325;DHT22;25037;49.488;9.900;2024-01-25T14:09:35;13.80;53.00
39325;DHT22;25037;49.488;9.900;2024-01-25T14:12:05;13.80;53.00
39325;DHT22;25037;49.488;9.900;2024-01-25T14:14:32;13.70;53.00
39325;DHT22;25037;49.488;9.900;2024-01-25T14:16:59;13.70;53.00
39325;DHT22;25037;49.488;9.900;2024-01-25T14:19:26;13.70;53.00
39325;DHT22;25037;49.488;9.900;2024-01-25T14:21:53;13.60;53.10
39325;DHT22;25037;49.488;9.900;2024-01-25T14:24:40;13.60;53.20
39325;DHT22;25037;49.488;9.900;2024-01-25T14:27:07;13.50;53.30
39325;DHT22;25037;49.488;9.900;2024-01-25T14:29:34;13.40;53.50
39325;DHT22;25037;49.488;9.900;2024-01-25T14:32:01;13.40;53.60
39325;DHT22;25037;49.488;9.900;2024-01-25T14:34:29;13.30;53.60
39325;DHT22;25037;49.488;9.900;2024-01-25T14:36:57;13.30;53.60
39325;DHT22;25037;49.488;9.900;2024-01-25T14:39:23;13.20;53.60
39325;DHT22;25037;49.488;9.900;2024-01-25T14:41:50;13.20;53.60
39325;DHT22;25037;49.488;9.900;2024-01-25T14:44:20;13.20;53.70
39325;DHT22;25037;49.488;9.900;2024-01-25T14:46:48;13.10;53.70
39325;DHT22;25037;49.488;9.900;2024-01-25T14:49:33;13.00;53.80
39325;DHT22;25037;49.488;9.900;2024-01-25T14:52:03;13.00;53.60
39325;DHT22;25037;49.488;9.900;2024-01-25T14:54:30;12.90;53.70
39325;DHT22;25037;49.488;9.900;2024-01-25T14:56:58;12.90;53.70
39325;DHT22;25037;49.488;9.900;2024-01-25T14:59:25;12.80;53.80
39325;DHT22;25037;49.488;9.900;2024-01-25T15:01:54;12.80;54.00
39325;DHT22;25037;49.488;9.900;2024-01-25T15:04:25;12.70;54.10
39325;DHT22;25037;49.488;9.900;2024-01-25T15:06:56;12.70;54.10
39325;DHT22;25037;49.488;9.900;2024-01-25T15:09:23;12.60;54.20
39325;DHT22;25037;49.488;9.900;2024-01-25T15:11:50;12.60;54.20
39325;DHT22;25037;49.488;9.900;2024-01-25T15:14:17;12.60;54.20
39325;DHT22;25037;49.488;9.900;2024-01-25T15:16:50;12.50;54.20
39325;DHT22;25037;49.488;9.900;2024-01-25T15:22:36;12.50;54.30
39325;DHT22;25037;49.488;9.900;2024-01-25T15:25:07;12.40;54.70
39325;DHT22;25037;49.488;9.900;2024-01-25T15:27:34;12.30;54.80
39325;DHT22;25037;49.488;9.900;2024-01-25T15:30:01;12.40;54.80
39325;DHT22;25037;49.488;9.900;2024-01-25T15:32:29;12.30;54.80
39325;DHT22;25037;49.488;9.900;2024-01-25T15:34:56;12.30;54.70
39325;DHT22;25037;49.488;9.900;2024-01-25T15:37:23;12.30;54.70
39325;DHT22;25037;49.488;9.900;2024-01-25T15:39:50;12.30;54.80
39325;DHT22;25037;49.488;9.900;2024-01-25T15:42:19;12.20;54.90
39325;DHT22;25037;49.488;9.900;2024-01-25T15:44:46;12.10;55.00
39325;DHT22;25037;49.488;9.900;2024-01-25T15:47:14;12.00;55.20
39325;DHT22;25037;49.488;9.900;2024-01-25T15:49:40;12.00;55.30
39325;DHT22;25037;49.488;9.900;2024-01-25T15:52:19;11.90;55.40
39325;DHT22;25037;49.488;9.900;2024-01-25T15:55:13;11.80;55.60
39325;DHT22;25037;49.488;9.900;2024-01-25T15:57:50;11.70;55.60
39325;DHT22;25037;49.488;9.900;2024-01-25T16:00:38;11.60;55.70
39325;DHT22;25037;49.488;9.900;2024-01-25T16:05:52;11.50;55.80